sensor_id;sensor_type;location;lat;lon;timestamp;pressure;altitude;pressure_sealevel;temperature;humidity
1736;BME280;865;53.672;10.250;2023-07-24T00:02:17;99774.44;;;16.47;100.00
1736;BME280;865;53.672;10.250;2023-07-24T00:04:44;99767.31;;;16.49;100.00
1736;BME280;865;53.672;10.250;2023-07-24T00:07:10;99769.84;;;16.64;100.00
1736;BME280;865;53.672;10.250;2023-07-24T00:09:37;99767.72;;;16.57;100.00
1736;BME280;865;53.672;10.250;2023-07-24T00:12:03;99755.47;;;16.56;100.00
1736;BME280;865;53.672;10.250;2023-07-24T00:14:30;99752.16;;;16.52;100.00
1736;BME280;865;53.672;10.250;2023-07-24T00:16:57;99755.84;;;16.50;100.00
1736;BME280;865;53.672;10.250;2023-07-24T00:19:23;99749.72;;;16.49;100.00
1736;BME280;865;53.672;10.250;2023-07-24T00:21:49;99744.34;;;16.51;100.00
1736;BME280;865;53.672;10.250;2023-07-24T00:24:16;99741.38;;;16.57;100.00
1736;BME280;865;53.672;10.250;2023-07-24T00:26:43;99739.66;;;16.56;100.00
1736;BME280;865;53.672;10.250;2023-07-24T00:29:09;99740.44;;;16.58;100.00
1736;BME280;865;53.672;10.250;2023-07-24T00:31:36;99734.59;;;16.53;100.00
1736;BME280;865;53.672;10.250;2023-07-24T00:34:02;99728.41;;;16.54;100.00
1736;BME280;865;53.672;10.250;2023-07-24T00:36:29;99729.31;;;16.53;100.00
1736;BME280;865;53.672;10.250;2023-07-24T00:38:55;99732.97;;;16.50;100.00
1736;BME280;865;53.672;10.250;2023-07-24T00:41:22;99730.16;;;16.53;100.00
1736;BME280;865;53.672;10.250;2023-07-24T00:43:48;99722.94;;;16.57;100.00
1736;BME280;865;53.672;10.250;2023-07-24T00:46:14;99726.22;;;16.60;100.00
1736;BME280;865;53.672;10.250;2023-07-24T00:48:41;99726.97;;;16.48;100.00
1736;BME280;865;53.672;10.250;2023-07-24T00:51:07;99723.84;;;16.41;100.00
1736;BME280;865;53.672;10.250;2023-07-24T00:53:34;99727.25;;;16.44;100.00
1736;BME280;865;53.672;10.250;2023-07-24T00:56:00;99719.84;;;16.36;100.00
1736;BME280;865;53.672;10.250;2023-07-24T00:58:27;99720.75;;;16.35;100.00
1736;BME280;865;53.672;10.250;2023-07-24T01:00:54;99724.88;;;16.25;100.00
1736;BME280;865;53.672;10.250;2023-07-24T01:03:22;99719.50;;;16.26;100.00
1736;BME280;865;53.672;10.250;2023-07-24T01:05:54;99724.50;;;16.31;100.00
1736;BME280;865;53.672;10.250;2023-07-24T01:08:21;99721.41;;;16.38;100.00
1736;BME280;865;53.672;10.250;2023-07-24T01:10:47;99727.50;;;16.25;100.00
1736;BME280;865;53.672;10.250;2023-07-24T01:13:22;99723.97;;;16.40;100.00
1736;BME280;865;53.672;10.250;2023-07-24T01:15:56;99722.53;;;16.34;100.00
1736;BME280;865;53.672;10.250;2023-07-24T01:18:24;99731.00;;;16.39;100.00
1736;BME280;865;53.672;10.250;2023-07-24T01:20:53;99725.91;;;16.51;100.00
1736;BME280;865;53.672;10.250;2023-07-24T01:23:49;99721.88;;;16.59;100.00
1736;BME280;865;53.672;10.250;2023-07-24T01:26:20;99723.78;;;16.57;100.00
1736;BME280;865;53.672;10.250;2023-07-24T01:28:47;99720.31;;;16.57;100.00
1736;BME280;865;53.672;10.250;2023-07-24T01:31:13;99717.56;;;16.58;100.00
1736;BME280;865;53.672;10.250;2023-07-24T01:33:40;99718.72;;;16.69;100.00
1736;BME280;865;53.672;10.250;2023-07-24T01:36:07;99723.69;;;16.73;100.00
1736;BME280;865;53.672;10.250;2023-07-24T01:38:34;99717.31;;;16.77;100.00
1736;BME280;865;53.672;10.250;2023-07-24T01:41:02;99723.34;;;16.79;100.00
1736;BME280;865;53.672;10.250;2023-07-24T01:43:29;99716.28;;;16.80;100.00
1736;BME280;865;53.672;10.250;2023-07-24T01:45:56;99719.66;;;16.82;100.00
1736;BME280;865;53.672;10.250;2023-07-24T01:48:23;99723.06;;;16.84;100.00
1736;BME280;865;53.672;10.250;2023-07-24T01:50:49;99720.69;;;16.79;100.00
1736;BME280;865;53.672;10.250;2023-07-24T01:53:16;99708.19;;;16.69;100.00
1736;BME280;865;53.672;10.250;2023-07-24T01:55:42;99708.06;;;16.70;100.00
1736;BME280;865;53.672;10.250;2023-07-24T01:58:09;99707.81;;;16.75;100.00
1736;BME280;865;53.672;10.250;2023-07-24T02:00:36;99707.44;;;16.81;100.00
1736;BME280;865;53.672;10.250;2023-07-24T02:03:02;99702.72;;;16.86;100.00
1736;BME280;865;53.672;10.250;2023-07-24T02:05:29;99702.91;;;16.97;100.00
1736;BME280;865;53.672;10.250;2023-07-24T02:07:56;99697.81;;;16.94;100.00
1736;BME280;865;53.672;10.250;2023-07-24T02:10:22;99701.31;;;16.95;100.00
1736;BME280;865;53.672;10.250;2023-07-24T02:12:49;99697.47;;;16.86;100.00
1736;BME280;865;53.672;10.250;2023-07-24T02:15:15;99702.25;;;16.94;100.00
1736;BME280;865;53.672;10.250;2023-07-24T02:17:42;99703.34;;;17.04;100.00
1736;BME280;865;53.672;10.250;2023-07-24T02:20:09;99699.59;;;17.08;100.00
1736;BME280;865;53.672;10.250;2023-07-24T02:22:35;99695.66;;;17.01;100.00
1736;BME280;865;53.672;10.250;2023-07-24T02:25:01;99692.94;;;17.02;100.00
1736;BME280;865;53.672;10.250;2023-07-24T02:27:30;99690.88;;;16.93;100.00
1736;BME280;865;53.672;10.250;2023-07-24T02:30:01;99698.47;;;16.98;100.00
1736;BME280;865;53.672;10.250;2023-07-24T02:32:28;99690.88;;;16.93;100.00
1736;BME280;865;53.672;10.250;2023-07-24T02:34:55;99697.38;;;16.88;100.00
1736;BME280;865;53.672;10.250;2023-07-24T02:37:21;99703.94;;;16.80;100.00
1736;BME280;865;53.672;10.250;2023-07-24T02:39:48;99701.44;;;16.79;100.00
1736;BME280;865;53.672;10.250;2023-07-24T02:42:14;99688.13;;;16.80;100.00
1736;BME280;865;53.672;10.250;2023-07-24T02:44:41;99695.47;;;16.75;100.00
1736;BME280;865;53.672;10.250;2023-07-24T02:47:07;99690.88;;;16.79;100.00
1736;BME280;865;53.672;10.250;2023-07-24T02:49:34;99701.31;;;16.80;100.00
1736;BME280;865;53.672;10.250;2023-07-24T02:52:01;99703.38;;;16.75;100.00
1736;BME280;865;53.672;10.250;2023-07-24T02:54:27;99711.50;;;16.87;100.00
1736;BME280;865;53.672;10.250;2023-07-24T02:56:54;99701.84;;;16.71;100.00
1736;BME280;865;53.672;10.250;2023-07-24T02:59:20;99696.41;;;16.74;100.00
1736;BME280;865;53.672;10.250;2023-07-24T03:01:46;99694.72;;;16.73;100.00
1736;BME280;865;53.672;10.250;2023-07-24T03:04:13;99692.91;;;16.74;100.00
1736;BME280;865;53.672;10.250;2023-07-24T03:06:39;99689.75;;;16.69;100.00
1736;BME280;865;53.672;10.250;2023-07-24T03:09:07;99693.41;;;16.66;100.00
1736;BME280;865;53.672;10.250;2023-07-24T03:11:33;99691.81;;;16.63;100.00
1736;BME280;865;53.672;10.250;2023-07-24T03:14:00;99687.84;;;16.71;100.00
1736;BME280;865;53.672;10.250;2023-07-24T03:16:26;99690.88;;;16.64;100.00
1736;BME280;865;53.672;10.250;2023-07-24T03:18:53;99695.28;;;16.64;100.00
1736;BME280;865;53.672;10.250;2023-07-24T03:21:20;99695.47;;;16.61;100.00
1736;BME280;865;53.672;10.250;2023-07-24T03:23:47;99690.47;;;16.71;100.00
1736;BME280;865;53.672;10.250;2023-07-24T03:26:14;99699.03;;;16.74;100.00
1736;BME280;865;53.672;10.250;2023-07-24T03:28:40;99695.47;;;16.75;100.00
1736;BME280;865;53.672;10.250;2023-07-24T03:31:07;99682.16;;;16.78;100.00
1736;BME280;865;53.672;10.250;2023-07-24T03:33:34;99686.66;;;16.76;100.00
1736;BME280;865;53.672;10.250;2023-07-24T03:36:00;99682.38;;;16.74;100.00
1736;BME280;865;53.672;10.250;2023-07-24T03:38:27;99680.53;;;16.76;100.00
1736;BME280;865;53.672;10.250;2023-07-24T03:40:53;99682.69;;;16.69;100.00
1736;BME280;865;53.672;10.250;2023-07-24T03:43:19;99676.28;;;16.73;100.00
1736;BME280;865;53.672;10.250;2023-07-24T03:45:46;99676.78;;;16.80;100.00
1736;BME280;865;53.672;10.250;2023-07-24T03:48:12;99665.50;;;16.78;100.00
1736;BME280;865;53.672;10.250;2023-07-24T03:50:40;99663.88;;;16.75;100.00
1736;BME280;865;53.672;10.250;2023-07-24T03:53:07;99669.25;;;16.88;100.00
1736;BME280;865;53.672;10.250;2023-07-24T03:55:33;99679.59;;;16.77;100.00
1736;BME280;865;53.672;10.250;2023-07-24T03:58:00;99680.16;;;16.82;100.00
1736;BME280;865;53.672;10.250;2023-07-24T04:00:26;99684.41;;;16.84;100.00
1736;BME280;865;53.672;10.250;2023-07-24T04:02:52;99677.13;;;16.88;100.00
1736;BME280;865;53.672;10.250;2023-07-24T04:05:19;99671.22;;;16.84;100.00
1736;BME280;865;53.672;10.250;2023-07-24T04:07:45;99680.41;;;16.92;100.00
1736;BME280;865;53.672;10.250;2023-07-24T04:10:12;99681.19;;;16.94;100.00
1736;BME280;865;53.672;10.250;2023-07-24T04:12:38;99687.94;;;16.98;100.00
1736;BME280;865;53.672;10.250;2023-07-24T04:15:05;99686.34;;;16.95;100.00
1736;BME280;865;53.672;10.250;2023-07-24T04:17:32;99689.09;;;16.94;100.00
1736;BME280;865;53.672;10.250;2023-07-24T04:19:59;99690.19;;;17.04;100.00
1736;BME280;865;53.672;10.250;2023-07-24T04:22:26;99692.44;;;17.10;100.00
1736;BME280;865;53.672;10.250;2023-07-24T04:24:52;99685.66;;;17.06;100.00
1736;BME280;865;53.672;10.250;2023-07-24T04:27:19;99685.88;;;17.03;100.00
1736;BME280;865;53.672;10.250;2023-07-24T04:29:46;99685.88;;;17.03;100.00
1736;BME280;865;53.672;10.250;2023-07-24T04:32:12;99683.91;;;16.92;100.00
1736;BME280;865;53.672;10.250;2023-07-24T04:34:39;99682.53;;;16.87;100.00
1736;BME280;865;53.672;10.250;2023-07-24T04:37:05;99683.91;;;16.92;100.00
1736;BME280;865;53.672;10.250;2023-07-24T04:39:32;99680.72;;;17.01;100.00
1736;BME280;865;53.672;10.250;2023-07-24T04:41:59;99682.19;;;17.05;100.00
1736;BME280;865;53.672;10.250;2023-07-24T04:44:26;99686.50;;;17.06;100.00
1736;BME280;865;53.672;10.250;2023-07-24T04:46:53;99682.59;;;16.99;100.00
1736;BME280;865;53.672;10.250;2023-07-24T04:49:19;99688.22;;;17.07;100.00
1736;BME280;865;53.672;10.250;2023-07-24T04:51:46;99693.78;;;17.03;100.00
1736;BME280;865;53.672;10.250;2023-07-24T04:54:12;99691.69;;;17.08;100.00
1736;BME280;865;53.672;10.250;2023-07-24T04:56:38;99690.94;;;17.06;100.00
1736;BME280;865;53.672;10.250;2023-07-24T04:59:05;99689.25;;;17.05;100.00
1736;BME280;865;53.672;10.250;2023-07-24T05:01:31;99681.44;;;17.03;100.00
1736;BME280;865;53.672;10.250;2023-07-24T05:03:58;99677.09;;;17.17;100.00
1736;BME280;865;53.672;10.250;2023-07-24T05:06:25;99675.44;;;17.28;100.00
1736;BME280;865;53.672;10.250;2023-07-24T05:08:53;99677.91;;;17.31;100.00
1736;BME280;865;53.672;10.250;2023-07-24T05:11:19;99673.16;;;17.37;100.00
1736;BME280;865;53.672;10.250;2023-07-24T05:13:45;99676.66;;;17.37;100.00
1736;BME280;865;53.672;10.250;2023-07-24T05:16:12;99677.56;;;17.36;100.00
1736;BME280;865;53.672;10.250;2023-07-24T05:18:38;99676.28;;;17.29;100.00
1736;BME280;865;53.672;10.250;2023-07-24T05:21:06;99670.91;;;17.30;100.00
1736;BME280;865;53.672;10.250;2023-07-24T05:23:33;99662.41;;;17.40;100.00
1736;BME280;865;53.672;10.250;2023-07-24T05:26:03;99664.31;;;17.38;100.00
1736;BME280;865;53.672;10.250;2023-07-24T05:28:31;99662.16;;;17.30;100.00
1736;BME280;865;53.672;10.250;2023-07-24T05:31:02;99652.81;;;17.39;100.00
1736;BME280;865;53.672;10.250;2023-07-24T05:33:29;99650.97;;;17.53;100.00
1736;BME280;865;53.672;10.250;2023-07-24T05:36:03;99655.63;;;17.63;100.00
1736;BME280;865;53.672;10.250;2023-07-24T05:38:30;99660.06;;;17.62;100.00
1736;BME280;865;53.672;10.250;2023-07-24T05:40:57;99661.84;;;17.62;100.00
1736;BME280;865;53.672;10.250;2023-07-24T05:43:24;99665.72;;;17.56;100.00
1736;BME280;865;53.672;10.250;2023-07-24T05:45:51;99659.22;;;17.62;100.00
1736;BME280;865;53.672;10.250;2023-07-24T05:48:18;99659.94;;;17.64;100.00
1736;BME280;865;53.672;10.250;2023-07-24T05:50:44;99661.22;;;17.71;100.00
1736;BME280;865;53.672;10.250;2023-07-24T05:53:11;99656.50;;;17.76;100.00
1736;BME280;865;53.672;10.250;2023-07-24T05:55:37;99657.22;;;17.65;100.00
1736;BME280;865;53.672;10.250;2023-07-24T05:58:04;99659.31;;;17.60;100.00
1736;BME280;865;53.672;10.250;2023-07-24T06:00:30;99657.84;;;17.69;100.00
1736;BME280;865;53.672;10.250;2023-07-24T06:02:57;99656.25;;;17.66;100.00
1736;BME280;865;53.672;10.250;2023-07-24T06:05:23;99649.59;;;17.61;100.00
1736;BME280;865;53.672;10.250;2023-07-24T06:07:50;99651.72;;;17.68;100.00
1736;BME280;865;53.672;10.250;2023-07-24T06:10:16;99643.28;;;17.63;100.00
1736;BME280;865;53.672;10.250;2023-07-24T06:12:43;99648.75;;;17.60;100.00
1736;BME280;865;53.672;10.250;2023-07-24T06:15:09;99647.41;;;17.67;100.00
1736;BME280;865;53.672;10.250;2023-07-24T06:17:36;99644.38;;;17.73;100.00
1736;BME280;865;53.672;10.250;2023-07-24T06:20:03;99647.09;;;17.72;100.00
1736;BME280;865;53.672;10.250;2023-07-24T06:22:29;99646.25;;;17.71;100.00
1736;BME280;865;53.672;10.250;2023-07-24T06:24:56;99644.38;;;17.73;100.00
1736;BME280;865;53.672;10.250;2023-07-24T06:27:22;99644.78;;;17.67;100.00
1736;BME280;865;53.672;10.250;2023-07-24T06:29:49;99648.25;;;17.68;100.00
1736;BME280;865;53.672;10.250;2023-07-24T06:32:20;99646.66;;;17.65;100.00
1736;BME280;865;53.672;10.250;2023-07-24T06:34:47;99648.41;;;17.79;100.00
1736;BME280;865;53.672;10.250;2023-07-24T06:37:13;99648.22;;;17.82;100.00
1736;BME280;865;53.672;10.250;2023-07-24T06:39:48;99644.63;;;17.83;100.00
1736;BME280;865;53.672;10.250;2023-07-24T06:42:14;99635.22;;;17.92;100.00
1736;BME280;865;53.672;10.250;2023-07-24T06:44:41;99632.19;;;17.98;100.00
1736;BME280;865;53.672;10.250;2023-07-24T06:47:07;99636.72;;;18.09;100.00
1736;BME280;865;53.672;10.250;2023-07-24T06:49:34;99635.13;;;18.19;100.00
1736;BME280;865;53.672;10.250;2023-07-24T06:52:00;99637.66;;;18.33;100.00
1736;BME280;865;53.672;10.250;2023-07-24T06:54:26;99637.13;;;18.28;100.00
1736;BME280;865;53.672;10.250;2023-07-24T06:56:53;99631.00;;;18.28;100.00
1736;BME280;865;53.672;10.250;2023-07-24T06:59:20;99638.09;;;18.27;100.00
1736;BME280;865;53.672;10.250;2023-07-24T07:01:46;99636.09;;;18.18;100.00
1736;BME280;865;53.672;10.250;2023-07-24T07:04:13;99635.13;;;18.32;100.00
1736;BME280;865;53.672;10.250;2023-07-24T07:06:39;99637.75;;;18.32;100.00
1736;BME280;865;53.672;10.250;2023-07-24T07:09:05;99639.31;;;18.47;100.00
1736;BME280;865;53.672;10.250;2023-07-24T07:11:32;99638.69;;;18.56;100.00
1736;BME280;865;53.672;10.250;2023-07-24T07:13:59;99643.56;;;18.50;100.00
1736;BME280;865;53.672;10.250;2023-07-24T07:16:25;99640.91;;;18.50;100.00
1736;BME280;865;53.672;10.250;2023-07-24T07:18:52;99629.63;;;18.48;100.00
1736;BME280;865;53.672;10.250;2023-07-24T07:21:18;99634.56;;;18.52;100.00
1736;BME280;865;53.672;10.250;2023-07-24T07:23:44;99630.03;;;18.54;100.00
1736;BME280;865;53.672;10.250;2023-07-24T07:26:12;99637.97;;;18.54;100.00
1736;BME280;865;53.672;10.250;2023-07-24T07:28:39;99643.56;;;18.62;100.00
1736;BME280;865;53.672;10.250;2023-07-24T07:31:05;99639.84;;;18.65;100.00
1736;BME280;865;53.672;10.250;2023-07-24T07:33:32;99638.28;;;18.62;100.00
1736;BME280;865;53.672;10.250;2023-07-24T07:35:58;99631.81;;;18.66;100.00
1736;BME280;865;53.672;10.250;2023-07-24T07:38:25;99640.91;;;18.50;100.00
1736;BME280;865;53.672;10.250;2023-07-24T07:40:51;99635.22;;;18.43;100.00
1736;BME280;865;53.672;10.250;2023-07-24T07:43:18;99638.59;;;18.45;100.00
1736;BME280;865;53.672;10.250;2023-07-24T07:45:44;99636.41;;;18.39;100.00
1736;BME280;865;53.672;10.250;2023-07-24T07:48:11;99637.84;;;18.43;100.00
1736;BME280;865;53.672;10.250;2023-07-24T07:50:38;99641.91;;;18.36;100.00
1736;BME280;865;53.672;10.250;2023-07-24T07:53:05;99646.56;;;18.32;100.00
1736;BME280;865;53.672;10.250;2023-07-24T07:55:32;99638.06;;;18.40;100.00
1736;BME280;865;53.672;10.250;2023-07-24T07:57:58;99652.44;;;18.49;100.00
1736;BME280;865;53.672;10.250;2023-07-24T08:00:25;99644.59;;;18.47;100.00
1736;BME280;865;53.672;10.250;2023-07-24T08:02:51;99644.19;;;18.53;100.00
1736;BME280;865;53.672;10.250;2023-07-24T08:05:18;99633.28;;;18.58;100.00
1736;BME280;865;53.672;10.250;2023-07-24T08:07:47;99631.31;;;18.74;100.00
1736;BME280;865;53.672;10.250;2023-07-24T08:10:14;99638.53;;;18.96;100.00
1736;BME280;865;53.672;10.250;2023-07-24T08:12:43;99632.31;;;18.72;100.00
1736;BME280;865;53.672;10.250;2023-07-24T08:15:10;99631.34;;;18.85;100.00
1736;BME280;865;53.672;10.250;2023-07-24T08:17:37;99634.34;;;18.81;100.00
1736;BME280;865;53.672;10.250;2023-07-24T08:20:04;99637.44;;;18.75;100.00
1736;BME280;865;53.672;10.250;2023-07-24T08:22:31;99627.88;;;18.85;100.00
1736;BME280;865;53.672;10.250;2023-07-24T08:24:57;99618.44;;;18.94;100.00
1736;BME280;865;53.672;10.250;2023-07-24T08:27:24;99636.41;;;19.01;100.00
1736;BME280;865;53.672;10.250;2023-07-24T08:29:51;99637.78;;;18.94;100.00
1736;BME280;865;53.672;10.250;2023-07-24T08:32:19;99631.56;;;18.95;100.00
1736;BME280;865;53.672;10.250;2023-07-24T08:34:46;99629.47;;;19.11;100.00
1736;BME280;865;53.672;10.250;2023-07-24T08:37:12;99636.16;;;19.28;100.00
1736;BME280;865;53.672;10.250;2023-07-24T08:39:39;99627.72;;;19.23;100.00
1736;BME280;865;53.672;10.250;2023-07-24T08:42:10;99626.59;;;19.15;100.00
1736;BME280;865;53.672;10.250;2023-07-24T08:44:37;99628.78;;;19.21;100.00
1736;BME280;865;53.672;10.250;2023-07-24T08:47:04;99633.38;;;19.19;100.00
1736;BME280;865;53.672;10.250;2023-07-24T08:49:33;99626.09;;;19.09;100.00
1736;BME280;865;53.672;10.250;2023-07-24T08:52:01;99620.53;;;19.01;100.00
1736;BME280;865;53.672;10.250;2023-07-24T08:54:28;99608.25;;;19.00;100.00
1736;BME280;865;53.672;10.250;2023-07-24T08:56:56;99622.94;;;19.04;100.00
1736;BME280;865;53.672;10.250;2023-07-24T08:59:23;99626.38;;;18.94;100.00
1736;BME280;865;53.672;10.250;2023-07-24T09:01:50;99629.53;;;18.99;100.00
1736;BME280;865;53.672;10.250;2023-07-24T09:04:18;99628.47;;;19.01;100.00
1736;BME280;865;53.672;10.250;2023-07-24T09:06:45;99621.59;;;19.23;100.00
1736;BME280;865;53.672;10.250;2023-07-24T09:09:15;99628.28;;;19.40;100.00
1736;BME280;865;53.672;10.250;2023-07-24T09:11:53;99633.16;;;19.22;100.00
1736;BME280;865;53.672;10.250;2023-07-24T09:14:25;99620.69;;;19.35;100.00
1736;BME280;865;53.672;10.250;2023-07-24T09:17:06;99622.91;;;19.52;100.00
1736;BME280;865;53.672;10.250;2023-07-24T09:19:34;99621.34;;;19.50;100.00
1736;BME280;865;53.672;10.250;2023-07-24T09:22:14;99629.97;;;19.41;100.00
1736;BME280;865;53.672;10.250;2023-07-24T09:24:51;99621.56;;;19.71;100.00
1736;BME280;865;53.672;10.250;2023-07-24T09:27:18;99626.19;;;19.91;100.00
1736;BME280;865;53.672;10.250;2023-07-24T09:29:45;99633.38;;;19.78;100.00
1736;BME280;865;53.672;10.250;2023-07-24T09:32:32;99637.13;;;19.51;100.00
1736;BME280;865;53.672;10.250;2023-07-24T09:35:00;99635.13;;;19.42;100.00
1736;BME280;865;53.672;10.250;2023-07-24T09:37:32;99632.69;;;19.28;100.00
1736;BME280;865;53.672;10.250;2023-07-24T09:39:58;99630.66;;;19.31;100.00
1736;BME280;865;53.672;10.250;2023-07-24T09:42:33;99639.25;;;19.46;100.00
1736;BME280;865;53.672;10.250;2023-07-24T09:45:01;99627.75;;;19.58;100.00
1736;BME280;865;53.672;10.250;2023-07-24T09:47:28;99641.44;;;19.52;100.00
1736;BME280;865;53.672;10.250;2023-07-24T09:50:15;99629.97;;;19.65;100.00
1736;BME280;865;53.672;10.250;2023-07-24T09:52:41;99612.63;;;19.96;100.00
1736;BME280;865;53.672;10.250;2023-07-24T09:55:18;99620.69;;;20.17;100.00
1736;BME280;865;53.672;10.250;2023-07-24T09:57:46;99625.50;;;20.12;100.00
1736;BME280;865;53.672;10.250;2023-07-24T10:00:13;99623.34;;;20.17;100.00
1736;BME280;865;53.672;10.250;2023-07-24T10:02:41;99613.00;;;20.14;100.00
1736;BME280;865;53.672;10.250;2023-07-24T10:05:08;99612.50;;;20.09;100.00
1736;BME280;865;53.672;10.250;2023-07-24T10:07:34;99614.69;;;20.26;100.00
1736;BME280;865;53.672;10.250;2023-07-24T10:10:02;99608.22;;;20.53;100.00
1736;BME280;865;53.672;10.250;2023-07-24T10:12:29;99608.28;;;20.51;100.00
1736;BME280;865;53.672;10.250;2023-07-24T10:14:58;99603.00;;;20.62;100.00
1736;BME280;865;53.672;10.250;2023-07-24T10:17:36;99607.44;;;20.51;100.00
1736;BME280;865;53.672;10.250;2023-07-24T10:20:04;99599.50;;;20.39;100.00
1736;BME280;865;53.672;10.250;2023-07-24T10:22:31;99609.63;;;20.23;100.00
1736;BME280;865;53.672;10.250;2023-07-24T10:24:58;99611.31;;;20.35;100.00
1736;BME280;865;53.672;10.250;2023-07-24T10:27:25;99619.84;;;20.39;100.00
1736;BME280;865;53.672;10.250;2023-07-24T10:30:03;99617.06;;;20.52;100.00
1736;BME280;865;53.672;10.250;2023-07-24T10:32:51;99622.50;;;20.50;100.00
1736;BME280;865;53.672;10.250;2023-07-24T10:35:21;99610.25;;;20.38;100.00
1736;BME280;865;53.672;10.250;2023-07-24T10:37:59;99620.22;;;20.23;100.00
1736;BME280;865;53.672;10.250;2023-07-24T10:40:26;99617.09;;;20.29;100.00
1736;BME280;865;53.672;10.250;2023-07-24T10:43:10;99622.25;;;20.08;100.00
1736;BME280;865;53.672;10.250;2023-07-24T10:45:51;99621.38;;;20.08;100.00
1736;BME280;865;53.672;10.250;2023-07-24T10:48:20;99617.09;;;20.29;100.00
1736;BME280;865;53.672;10.250;2023-07-24T10:50:49;99616.13;;;20.30;100.00
1736;BME280;865;53.672;10.250;2023-07-24T10:53:21;99628.88;;;20.14;100.00
1736;BME280;865;53.672;10.250;2023-07-24T10:55:48;99629.00;;;20.12;100.00
1736;BME280;865;53.672;10.250;2023-07-24T10:58:14;99617.81;;;20.20;100.00
1736;BME280;865;53.672;10.250;2023-07-24T11:00:44;99617.44;;;20.24;100.00
1736;BME280;865;53.672;10.250;2023-07-24T11:03:12;99626.22;;;20.25;100.00
1736;BME280;865;53.672;10.250;2023-07-24T11:05:43;99626.38;;;20.35;100.00
1736;BME280;865;53.672;10.250;2023-07-24T11:08:19;99622.53;;;20.61;100.00
1736;BME280;865;53.672;10.250;2023-07-24T11:10:47;99622.41;;;20.74;100.00
1736;BME280;865;53.672;10.250;2023-07-24T11:13:19;99622.16;;;20.77;100.00
1736;BME280;865;53.672;10.250;2023-07-24T11:15:45;99629.28;;;20.65;100.00
1736;BME280;865;53.672;10.250;2023-07-24T11:18:12;99623.47;;;20.60;100.00
1736;BME280;865;53.672;10.250;2023-07-24T11:20:53;99618.53;;;20.78;100.00
1736;BME280;865;53.672;10.250;2023-07-24T11:23:20;99627.22;;;20.80;100.00
1736;BME280;865;53.672;10.250;2023-07-24T11:25:46;99610.00;;;20.63;100.00
1736;BME280;865;53.672;10.250;2023-07-24T11:28:14;99612.53;;;20.65;100.00
1736;BME280;865;53.672;10.250;2023-07-24T11:30:41;99603.59;;;20.88;100.00
1736;BME280;865;53.672;10.250;2023-07-24T11:33:11;99597.69;;;21.17;100.00
1736;BME280;865;53.672;10.250;2023-07-24T11:35:40;99607.69;;;21.36;100.00
1736;BME280;865;53.672;10.250;2023-07-24T11:38:08;99598.13;;;21.33;100.00
1736;BME280;865;53.672;10.250;2023-07-24T11:40:42;99600.22;;;21.19;100.00
1736;BME280;865;53.672;10.250;2023-07-24T11:43:21;99597.44;;;21.20;100.00
1736;BME280;865;53.672;10.250;2023-07-24T11:45:51;99605.34;;;21.31;100.00
1736;BME280;865;53.672;10.250;2023-07-24T11:48:20;99595.47;;;21.45;100.00
1736;BME280;865;53.672;10.250;2023-07-24T11:50:48;99598.63;;;21.27;100.00
1736;BME280;865;53.672;10.250;2023-07-24T11:53:25;99591.88;;;21.23;100.00
1736;BME280;865;53.672;10.250;2023-07-24T11:55:53;99602.78;;;21.09;100.00
1736;BME280;865;53.672;10.250;2023-07-24T11:58:21;99591.28;;;21.20;100.00
1736;BME280;865;53.672;10.250;2023-07-24T12:00:48;99601.09;;;21.08;100.00
1736;BME280;865;53.672;10.250;2023-07-24T12:03:25;99599.53;;;21.05;100.00
1736;BME280;865;53.672;10.250;2023-07-24T12:05:53;99595.81;;;20.97;100.00
1736;BME280;865;53.672;10.250;2023-07-24T12:08:21;99584.44;;;21.17;100.00
1736;BME280;865;53.672;10.250;2023-07-24T12:10:50;99585.13;;;21.30;100.00
1736;BME280;865;53.672;10.250;2023-07-24T12:13:16;99589.94;;;21.36;100.00
1736;BME280;865;53.672;10.250;2023-07-24T12:15:47;99587.97;;;21.38;100.00
1736;BME280;865;53.672;10.250;2023-07-24T12:18:14;99575.31;;;21.63;100.00
1736;BME280;865;53.672;10.250;2023-07-24T12:20:41;99580.13;;;22.00;100.00
1736;BME280;865;53.672;10.250;2023-07-24T12:23:07;99578.22;;;22.02;100.00
1736;BME280;865;53.672;10.250;2023-07-24T12:25:34;99577.34;;;22.22;100.00
1736;BME280;865;53.672;10.250;2023-07-24T12:28:01;99582.06;;;21.98;100.00
1736;BME280;865;53.672;10.250;2023-07-24T12:30:27;99571.47;;;21.98;100.00
1736;BME280;865;53.672;10.250;2023-07-24T12:32:54;99580.69;;;22.24;100.00
1736;BME280;865;53.672;10.250;2023-07-24T12:35:20;99575.06;;;22.48;100.00
1736;BME280;865;53.672;10.250;2023-07-24T12:37:47;99578.06;;;22.84;100.00
1736;BME280;865;53.672;10.250;2023-07-24T12:40:13;99583.81;;;22.89;100.00
1736;BME280;865;53.672;10.250;2023-07-24T12:42:40;99589.84;;;22.91;100.00
1736;BME280;865;53.672;10.250;2023-07-24T12:45:07;99583.06;;;23.18;100.00
1736;BME280;865;53.672;10.250;2023-07-24T12:47:33;99581.78;;;23.03;100.00
1736;BME280;865;53.672;10.250;2023-07-24T12:50:00;99567.91;;;23.28;100.00
1736;BME280;865;53.672;10.250;2023-07-24T12:52:29;99575.34;;;23.25;100.00
1736;BME280;865;53.672;10.250;2023-07-24T12:54:55;99565.25;;;23.28;100.00
1736;BME280;865;53.672;10.250;2023-07-24T12:57:28;99565.66;;;23.14;100.00
1736;BME280;865;53.672;10.250;2023-07-24T12:59:55;99566.22;;;22.98;100.00
1736;BME280;865;53.672;10.250;2023-07-24T13:02:21;99573.16;;;22.70;100.00
1736;BME280;865;53.672;10.250;2023-07-24T13:04:48;99564.28;;;22.50;100.00
1736;BME280;865;53.672;10.250;2023-07-24T13:07:14;99555.06;;;22.54;100.00
1736;BME280;865;53.672;10.250;2023-07-24T13:09:41;99555.22;;;22.62;100.00
1736;BME280;865;53.672;10.250;2023-07-24T13:12:08;99539.59;;;22.88;100.00
1736;BME280;865;53.672;10.250;2023-07-24T13:14:35;99542.28;;;23.08;100.00